Albany Center, Vermont
Current Conditions -  °F | °C
As of 3:35 AM on Friday 24 Oct 2014 (Local Time) from KEFK Reporting Station
Haze Haze  
Wind Chill: 35°   Ceiling: 700
Heat Index: 42°   Visibility: 5mi
Dew Point: 40°   Wind: 13mph
Humidity: 95%   Direction: 360°N
Pressure: 29.8"   Gusts: NA
Location:  44.8143°N, 72.284°W
Report Text: KEFK 240735Z AUTO 36011KT 5SM BR OVC007 05/05 A2980 RMK AO2 T00530046
Loading
Personal Weather Stations






























Interactive Weather Map New forecast layout! Learn more

10-Day Weather Forecast

Advertisements
Track Severe Weather on mobile